Time;durP1;ratioP1;P1;durP2;ratioP2;P2;SDS_P1;SDS_P2;PMS_P1;PMS_P2;Temp;Humidity;BMP_temperature;BMP_pressure;BME280_temperature;BME280_humidity;BME280_pressure;Samples;Min_cycle;Max_cycle;Signal;HPM_P1;HPM_P2
2021/06/24 00:04:53;;;;;;;10.15;3.85;;;;;;;;;;10110434;28;20097;-69
2021/06/24 00:09:49;;;;;;;10.75;3.50;;;;;;;;;;10107805;28;20123;-69
2021/06/24 00:14:46;;;;;;;13.13;4.40;;;;;;;;;;10108058;28;20054;-69
2021/06/24 00:19:42;;;;;;;13.10;4.65;;;;;;;;;;10113087;28;20038;-70
2021/06/24 00:24:39;;;;;;;11.77;3.60;;;;;;;;;;10105231;28;20038;-70
2021/06/24 00:29:35;;;;;;;7.63;2.97;;;;;;;;;;10104467;28;20055;-68
2021/06/24 00:34:31;;;;;;;13.13;3.20;;;;;;;;;;10108373;28;20576;-69
2021/06/24 00:39:28;;;;;;;7.80;3.53;;;;;;;;;;10105411;28;20070;-69
2021/06/24 00:44:26;;;;;;;11.27;3.63;;;;;;;;;;10108787;28;20047;-69
2021/06/24 00:49:31;;;;;;;11.82;3.55;;;;;;;;;;10104083;28;20043;-69
2021/06/24 00:54:51;;;;;;;9.35;3.20;;;;;;;;;;10094918;28;20042;-68
2021/06/24 01:00:05;;;;;;;10.77;3.58;;;;;;;;;;10105499;28;20613;-69
2021/06/24 01:05:03;;;;;;;10.30;3.13;;;;;;;;;;10102923;28;20097;-71
2021/06/24 01:09:59;;;;;;;8.98;3.35;;;;;;;;;;10107135;28;20058;-71
2021/06/24 01:14:56;;;;;;;11.50;3.30;;;;;;;;;;10105208;28;20078;-69
2021/06/24 01:19:53;;;;;;;12.15;3.45;;;;;;;;;;10105071;28;20479;-72
2021/06/24 01:24:49;;;;;;;9.20;3.72;;;;;;;;;;10091408;28;20133;-71
2021/06/24 01:29:46;;;;;;;8.30;3.30;;;;;;;;;;10105010;28;20145;-70
2021/06/24 01:34:42;;;;;;;10.88;4.10;;;;;;;;;;10104290;28;20043;-71
2021/06/24 01:39:39;;;;;;;14.73;3.75;;;;;;;;;;10110809;28;20134;-71
2021/06/24 01:44:36;;;;;;;8.90;3.60;;;;;;;;;;10106699;28;20081;-69
2021/06/24 01:49:39;;;;;;;10.13;3.70;;;;;;;;;;10122339;28;20117;-69
2021/06/24 01:54:36;;;;;;;5.25;2.92;;;;;;;;;;10112730;28;20043;-68
2021/06/24 01:59:37;;;;;;;11.38;3.90;;;;;;;;;;10107498;28;20050;-68
2021/06/24 02:04:34;;;;;;;10.07;3.70;;;;;;;;;;10117152;28;20051;-68
2021/06/24 02:09:33;;;;;;;12.05;4.03;;;;;;;;;;10109531;28;20074;-70
2021/06/24 02:14:30;;;;;;;11.68;4.32;;;;;;;;;;10110665;28;20070;-66
2021/06/24 02:19:27;;;;;;;13.85;4.00;;;;;;;;;;10118638;28;20062;-70
2021/06/24 02:24:23;;;;;;;7.80;3.90;;;;;;;;;;10114939;28;20043;-67
2021/06/24 02:29:35;;;;;;;20.80;6.45;;;;;;;;;;10110736;28;20042;-71
2021/06/24 02:34:41;;;;;;;9.95;4.45;;;;;;;;;;10105744;28;20050;-69
2021/06/24 02:40:03;;;;;;;11.73;5.20;;;;;;;;;;10116399;28;20505;-70
2021/06/24 02:44:59;;;;;;;16.08;4.88;;;;;;;;;;10112327;28;20047;-70
2021/06/24 02:49:56;;;;;;;11.10;5.20;;;;;;;;;;10107111;28;20054;-69
2021/06/24 02:54:55;;;;;;;7.35;4.22;;;;;;;;;;10118139;28;20046;-70
2021/06/24 02:59:52;;;;;;;10.52;4.47;;;;;;;;;;10108533;28;20049;-68
2021/06/24 03:04:48;;;;;;;13.27;4.43;;;;;;;;;;10111899;28;20070;-69
2021/06/24 03:09:45;;;;;;;12.80;4.20;;;;;;;;;;10103407;28;20509;-72
2021/06/24 03:14:42;;;;;;;12.75;5.63;;;;;;;;;;10122344;28;20505;-69
2021/06/24 03:19:38;;;;;;;10.60;3.97;;;;;;;;;;10118572;28;20485;-68
2021/06/24 03:24:34;;;;;;;8.13;4.28;;;;;;;;;;10104136;28;20039;-69
2021/06/24 03:29:31;;;;;;;9.32;4.72;;;;;;;;;;10111724;28;20043;-69
2021/06/24 03:34:27;;;;;;;11.50;4.57;;;;;;;;;;10111237;28;20038;-69
2021/06/24 03:39:24;;;;;;;7.00;3.92;;;;;;;;;;10103088;28;20135;-71
2021/06/24 03:44:24;;;;;;;12.90;5.03;;;;;;;;;;10106276;28;20054;-69
2021/06/24 03:49:20;;;;;;;9.30;3.92;;;;;;;;;;10106214;28;20430;-68
2021/06/24 03:54:16;;;;;;;8.57;3.55;;;;;;;;;;10108993;28;20129;-67
2021/06/24 03:59:13;;;;;;;8.55;4.47;;;;;;;;;;10101940;28;20074;-70
2021/06/24 04:04:10;;;;;;;10.65;4.78;;;;;;;;;;10101347;28;20569;-69
2021/06/24 04:09:08;;;;;;;8.88;4.00;;;;;;;;;;10113668;28;20122;-69
2021/06/24 04:14:05;;;;;;;10.25;4.95;;;;;;;;;;10107893;28;20113;-69
2021/06/24 04:19:01;;;;;;;13.18;3.92;;;;;;;;;;10116877;28;20130;-69
2021/06/24 04:23:58;;;;;;;10.88;4.63;;;;;;;;;;10110981;28;20101;-70
2021/06/24 04:28:54;;;;;;;8.73;4.03;;;;;;;;;;10110811;28;20094;-70
2021/06/24 04:33:50;;;;;;;10.00;4.15;;;;;;;;;;10107640;28;20039;-66
2021/06/24 04:38:47;;;;;;;13.32;4.75;;;;;;;;;;10112283;28;20046;-68
2021/06/24 04:43:43;;;;;;;12.07;4.18;;;;;;;;;;10106036;28;20039;-68
2021/06/24 04:48:39;;;;;;;8.23;4.60;;;;;;;;;;10100193;28;20583;-69
2021/06/24 04:53:39;;;;;;;12.23;3.95;;;;;;;;;;10106948;28;20038;-67
2021/06/24 04:58:35;;;;;;;13.93;4.93;;;;;;;;;;10105157;28;20043;-68
2021/06/24 05:03:31;;;;;;;10.70;3.83;;;;;;;;;;10102758;28;20157;-67
2021/06/24 05:08:32;;;;;;;11.15;4.03;;;;;;;;;;10117036;28;20077;-68
2021/06/24 05:13:28;;;;;;;8.48;3.78;;;;;;;;;;10110945;28;20479;-67
2021/06/24 05:18:25;;;;;;;9.55;3.67;;;;;;;;;;10111055;28;20977;-67
2021/06/24 05:23:21;;;;;;;8.52;3.90;;;;;;;;;;10123089;28;20130;-68
2021/06/24 05:28:17;;;;;;;10.57;4.10;;;;;;;;;;10106953;28;20260;-68
2021/06/24 05:33:14;;;;;;;7.32;2.72;;;;;;;;;;10108933;28;20556;-67
2021/06/24 05:38:11;;;;;;;10.10;3.70;;;;;;;;;;10114325;28;20039;-67
2021/06/24 05:43:08;;;;;;;8.60;2.75;;;;;;;;;;10119312;28;20043;-68
2021/06/24 05:48:04;;;;;;;7.20;2.65;;;;;;;;;;10124272;28;20050;-66
2021/06/24 05:53:01;;;;;;;6.63;2.30;;;;;;;;;;10107872;28;20042;-67
2021/06/24 05:57:57;;;;;;;7.38;2.80;;;;;;;;;;10118796;28;20035;-67
2021/06/24 06:02:53;;;;;;;9.40;2.95;;;;;;;;;;10115066;28;20098;-67
2021/06/24 06:07:50;;;;;;;7.25;2.53;;;;;;;;;;10115965;28;20127;-66
2021/06/24 06:12:46;;;;;;;9.73;2.60;;;;;;;;;;10104462;28;20046;-67
2021/06/24 06:17:42;;;;;;;7.13;2.60;;;;;;;;;;10110456;28;20053;-66
2021/06/24 06:22:39;;;;;;;9.60;3.17;;;;;;;;;;10113620;28;20075;-66
2021/06/24 06:27:40;;;;;;;10.63;2.42;;;;;;;;;;10114618;28;20230;-67
2021/06/24 06:32:37;;;;;;;7.00;2.60;;;;;;;;;;10120770;28;20097;-67
2021/06/24 06:37:33;;;;;;;7.47;2.33;;;;;;;;;;10110255;28;20030;-67
2021/06/24 06:42:31;;;;;;;6.78;2.42;;;;;;;;;;10110150;28;20046;-67
2021/06/24 06:47:27;;;;;;;7.60;2.30;;;;;;;;;;10108161;28;20047;-67
2021/06/24 06:52:23;;;;;;;11.52;2.63;;;;;;;;;;10112281;28;20038;-68
2021/06/24 06:57:19;;;;;;;8.15;2.28;;;;;;;;;;10115521;28;20090;-67
2021/06/24 07:02:16;;;;;;;6.80;2.25;;;;;;;;;;10107822;28;20050;-67
2021/06/24 07:07:12;;;;;;;8.25;2.25;;;;;;;;;;10123759;28;20108;-66
2021/06/24 07:12:09;;;;;;;10.13;2.50;;;;;;;;;;10117271;28;20081;-69
2021/06/24 07:17:05;;;;;;;8.05;2.40;;;;;;;;;;10109336;28;20105;-69
2021/06/24 07:22:02;;;;;;;7.43;2.22;;;;;;;;;;10105157;28;20425;-66
2021/06/24 07:26:58;;;;;;;4.68;1.90;;;;;;;;;;10113612;28;20082;-68
2021/06/24 07:31:54;;;;;;;6.80;2.13;;;;;;;;;;10108410;28;20097;-68
2021/06/24 07:36:51;;;;;;;8.43;1.98;;;;;;;;;;10106639;28;20121;-69
2021/06/24 07:41:47;;;;;;;6.13;2.20;;;;;;;;;;10098827;28;20521;-67
2021/06/24 07:46:45;;;;;;;5.78;1.90;;;;;;;;;;10100878;28;20112;-69
2021/06/24 07:51:41;;;;;;;5.68;1.67;;;;;;;;;;10107450;28;20724;-68
2021/06/24 07:56:50;;;;;;;4.35;1.60;;;;;;;;;;10121478;28;20039;-69
2021/06/24 08:01:47;;;;;;;6.53;2.10;;;;;;;;;;10108971;28;20122;-69
2021/06/24 08:06:43;;;;;;;4.25;1.50;;;;;;;;;;10114605;28;20061;-66
2021/06/24 08:11:40;;;;;;;5.13;1.80;;;;;;;;;;10111612;28;20098;-66
2021/06/24 08:16:36;;;;;;;4.40;1.63;;;;;;;;;;10110920;28;20047;-66
2021/06/24 08:21:33;;;;;;;5.05;1.80;;;;;;;;;;10110056;28;20050;-68
2021/06/24 08:26:31;;;;;;;8.20;2.00;;;;;;;;;;10116625;28;20050;-68
2021/06/24 08:31:27;;;;;;;6.07;1.83;;;;;;;;;;10117822;28;20051;-68
2021/06/24 08:36:24;;;;;;;5.95;2.00;;;;;;;;;;10110238;28;20043;-69
2021/06/24 08:41:25;;;;;;;5.35;2.47;;;;;;;;;;10107446;28;20081;-68
2021/06/24 08:46:22;;;;;;;4.47;2.13;;;;;;;;;;10107338;28;20414;-68
2021/06/24 08:51:18;;;;;;;4.97;2.20;;;;;;;;;;10103538;28;20052;-68
2021/06/24 08:56:16;;;;;;;4.28;2.03;;;;;;;;;;10110510;28;20782;-67
2021/06/24 09:01:13;;;;;;;5.28;2.20;;;;;;;;;;10102171;28;20042;-68
2021/06/24 09:06:09;;;;;;;6.15;2.70;;;;;;;;;;10106014;28;20043;-67
2021/06/24 09:11:06;;;;;;;7.45;3.03;;;;;;;;;;10104419;28;20114;-69
2021/06/24 09:16:17;;;;;;;5.07;2.50;;;;;;;;;;10099355;28;20051;-71
2021/06/24 09:21:32;;;;;;;7.18;2.78;;;;;;;;;;10103766;28;20485;-69
2021/06/24 09:26:32;;;;;;;6.45;2.55;;;;;;;;;;10112671;28;20070;-68
2021/06/24 09:31:31;;;;;;;6.60;2.30;;;;;;;;;;10095496;28;20420;-66
2021/06/24 09:36:32;;;;;;;8.50;3.00;;;;;;;;;;10103281;28;20408;-68
2021/06/24 09:41:28;;;;;;;6.07;2.58;;;;;;;;;;10102354;28;20653;-69
2021/06/24 09:46:27;;;;;;;7.95;2.78;;;;;;;;;;10105761;28;20125;-69
2021/06/24 09:51:28;;;;;;;4.95;2.15;;;;;;;;;;10104765;28;20424;-68
2021/06/24 09:56:32;;;;;;;6.07;2.28;;;;;;;;;;10102532;28;20525;-69
2021/06/24 10:01:29;;;;;;;7.50;2.58;;;;;;;;;;10100640;28;20126;-69
2021/06/24 10:06:26;;;;;;;6.78;2.55;;;;;;;;;;10104410;28;20046;-67
2021/06/24 10:11:23;;;;;;;5.15;2.08;;;;;;;;;;10117369;28;20066;-68
2021/06/24 10:16:22;;;;;;;5.13;2.80;;;;;;;;;;10110986;28;20118;-70
2021/06/24 10:21:20;;;;;;;6.45;3.15;;;;;;;;;;10111676;28;20039;-70
2021/06/24 10:26:17;;;;;;;6.57;2.70;;;;;;;;;;10121394;28;20129;-71
2021/06/24 10:31:32;;;;;;;8.85;3.20;;;;;;;;;;10112423;28;20122;-71
2021/06/24 10:36:30;;;;;;;7.85;2.72;;;;;;;;;;10111851;28;20043;-69
2021/06/24 10:41:26;;;;;;;6.43;3.13;;;;;;;;;;10110267;28;20046;-70
2021/06/24 10:46:25;;;;;;;10.20;3.83;;;;;;;;;;10117630;28;20067;-68
2021/06/24 10:51:32;;;;;;;9.57;3.97;;;;;;;;;;10112314;28;20089;-71
2021/06/24 10:56:29;;;;;;;7.43;3.30;;;;;;;;;;10115136;28;20085;-70
2021/06/24 11:01:42;;;;;;;6.00;3.17;;;;;;;;;;10106393;28;20065;-67
2021/06/24 11:06:50;;;;;;;5.80;3.70;;;;;;;;;;10114330;28;20448;-70
2021/06/24 11:11:46;;;;;;;8.10;3.90;;;;;;;;;;10106166;28;20125;-70
2021/06/24 11:16:46;;;;;;;7.95;4.43;;;;;;;;;;10108837;28;20146;-69
2021/06/24 11:21:46;;;;;;;8.10;3.97;;;;;;;;;;10113616;28;20054;-69
2021/06/24 11:26:43;;;;;;;6.22;3.90;;;;;;;;;;10115063;28;20409;-69
2021/06/24 11:36:56;;;;;;;8.73;3.28;;;;;;;;;;10108437;28;20524;-70
2021/06/24 11:41:56;;;;;;;9.35;3.85;;;;;;;;;;10105843;28;20593;-70
2021/06/24 11:46:57;;;;;;;7.47;5.07;;;;;;;;;;10105868;28;20142;-70
2021/06/24 12:07:37;;;;;;;5.28;3.63;;;;;;;;;;10105948;28;20046;-69
2021/06/24 12:12:33;;;;;;;6.47;3.40;;;;;;;;;;10115743;28;20056;-68
2021/06/24 12:17:31;;;;;;;7.30;3.40;;;;;;;;;;10099910;28;20047;-67
2021/06/24 12:22:40;;;;;;;6.32;2.95;;;;;;;;;;10104488;28;20097;-69
2021/06/24 12:27:38;;;;;;;9.65;2.95;;;;;;;;;;10096310;28;20101;-67
2021/06/24 12:32:35;;;;;;;8.02;3.70;;;;;;;;;;10108242;28;20108;-67
2021/06/24 12:37:35;;;;;;;6.47;3.72;;;;;;;;;;10113962;28;20066;-66
2021/06/24 12:42:32;;;;;;;6.90;2.78;;;;;;;;;;10114213;28;20483;-69
2021/06/24 12:47:46;;;;;;;6.30;3.10;;;;;;;;;;10103082;28;20129;-69
2021/06/24 12:52:43;;;;;;;8.57;3.80;;;;;;;;;;10107691;28;20145;-69
2021/06/24 12:57:40;;;;;;;5.97;3.00;;;;;;;;;;10104225;28;20137;-69
2021/06/24 13:02:49;;;;;;;5.43;3.13;;;;;;;;;;10107162;28;20109;-70
2021/06/24 13:07:56;;;;;;;5.82;3.15;;;;;;;;;;10110801;28;20108;-70
2021/06/24 13:12:52;;;;;;;8.80;3.53;;;;;;;;;;10106933;28;20077;-68
2021/06/24 13:17:55;;;;;;;8.68;3.00;;;;;;;;;;10109459;28;20050;-67
2021/06/24 13:23:04;;;;;;;8.90;2.78;;;;;;;;;;10109698;28;20137;-67
2021/06/24 13:28:04;;;;;;;6.05;2.40;;;;;;;;;;10117474;28;20085;-68
2021/06/24 13:33:00;;;;;;;6.47;3.00;;;;;;;;;;10114571;28;20039;-69
2021/06/24 13:37:58;;;;;;;4.55;2.35;;;;;;;;;;10109692;28;20074;-67
2021/06/24 13:42:58;;;;;;;11.98;3.72;;;;;;;;;;10111102;28;20130;-69
2021/06/24 13:48:15;;;;;;;6.38;2.42;;;;;;;;;;10113316;28;20050;-69
2021/06/24 13:53:12;;;;;;;9.85;3.00;;;;;;;;;;10113975;28;20050;-69
2021/06/24 13:58:09;;;;;;;10.70;3.08;;;;;;;;;;10112314;28;20035;-68
2021/06/24 14:03:06;;;;;;;9.50;4.43;;;;;;;;;;10116213;28;20526;-69
2021/06/24 14:08:03;;;;;;;5.20;2.28;;;;;;;;;;10114589;28;20047;-69
2021/06/24 14:12:59;;;;;;;7.00;2.78;;;;;;;;;;10102517;28;20046;-69
2021/06/24 14:17:59;;;;;;;6.78;2.53;;;;;;;;;;10107963;28;20146;-70
2021/06/24 14:22:55;;;;;;;6.18;2.33;;;;;;;;;;10118767;28;20082;-69
2021/06/24 14:27:52;;;;;;;7.72;2.20;;;;;;;;;;10120647;28;20078;-69
2021/06/24 14:32:48;;;;;;;6.68;2.38;;;;;;;;;;10122104;28;20073;-69
2021/06/24 14:37:44;;;;;;;6.43;2.75;;;;;;;;;;10118105;28;20042;-69
2021/06/24 14:42:41;;;;;;;6.88;2.75;;;;;;;;;;10104790;28;20045;-68
2021/06/24 14:47:37;;;;;;;6.68;3.67;;;;;;;;;;10115633;28;20038;-67
2021/06/24 14:52:33;;;;;;;7.03;2.90;;;;;;;;;;10107899;28;20102;-67
2021/06/24 14:57:30;;;;;;;7.70;2.80;;;;;;;;;;10114262;28;20074;-66
2021/06/24 15:02:26;;;;;;;9.23;2.67;;;;;;;;;;10117064;28;20133;-71
2021/06/24 15:07:22;;;;;;;10.32;4.45;;;;;;;;;;10110219;28;20150;-69
2021/06/24 15:12:19;;;;;;;6.07;3.08;;;;;;;;;;10117819;28;20126;-69
2021/06/24 15:17:15;;;;;;;7.43;3.50;;;;;;;;;;10119557;28;20493;-69
2021/06/24 15:22:11;;;;;;;9.30;2.80;;;;;;;;;;10108504;28;20615;-68
2021/06/24 15:27:09;;;;;;;6.32;3.10;;;;;;;;;;10105399;28;20142;-71
2021/06/24 15:32:06;;;;;;;6.32;3.20;;;;;;;;;;10109070;28;20100;-70
2021/06/24 15:37:05;;;;;;;9.77;3.35;;;;;;;;;;10111802;28;20138;-69
2021/06/24 15:42:02;;;;;;;5.88;3.00;;;;;;;;;;10121974;28;20444;-69
2021/06/24 15:46:59;;;;;;;8.32;3.25;;;;;;;;;;10110642;28;20046;-70
2021/06/24 15:51:55;;;;;;;9.18;3.90;;;;;;;;;;10106285;28;20074;-70
2021/06/24 15:56:52;;;;;;;8.77;3.10;;;;;;;;;;10103455;28;20066;-68
2021/06/24 16:01:48;;;;;;;6.72;3.17;;;;;;;;;;10120155;28;21766;-69
2021/06/24 16:06:45;;;;;;;8.68;3.03;;;;;;;;;;10109904;28;20501;-69
2021/06/24 16:11:41;;;;;;;6.82;3.03;;;;;;;;;;10099938;28;20532;-70
2021/06/24 16:16:38;;;;;;;9.50;3.50;;;;;;;;;;10097260;28;20181;-69
2021/06/24 16:21:35;;;;;;;6.55;3.90;;;;;;;;;;10113729;28;20101;-68
2021/06/24 16:26:32;;;;;;;7.82;3.20;;;;;;;;;;10107745;28;20538;-69
2021/06/24 16:31:28;;;;;;;5.85;3.05;;;;;;;;;;10101373;28;20557;-69
2021/06/24 16:36:25;;;;;;;7.53;3.53;;;;;;;;;;10106940;28;20046;-69
2021/06/24 16:41:21;;;;;;;6.53;3.78;;;;;;;;;;10103404;28;20598;-69
2021/06/24 16:46:17;;;;;;;12.50;5.05;;;;;;;;;;10104367;28;21703;-67
2021/06/24 16:51:14;;;;;;;6.68;3.80;;;;;;;;;;10112527;28;20073;-68
2021/06/24 16:56:22;;;;;;;8.88;5.95;;;;;;;;;;10099989;28;20077;-66
2021/06/24 17:01:18;;;;;;;9.18;5.07;;;;;;;;;;10101203;28;20457;-65
2021/06/24 17:06:14;;;;;;;6.03;3.28;;;;;;;;;;10106881;28;20407;-66
2021/06/24 17:11:11;;;;;;;7.32;3.95;;;;;;;;;;10106489;28;20465;-67
2021/06/24 17:16:07;;;;;;;16.20;8.80;;;;;;;;;;10112418;28;20055;-67
2021/06/24 17:21:05;;;;;;;8.27;4.47;;;;;;;;;;10120200;28;20069;-67
2021/06/24 17:26:01;;;;;;;9.82;3.72;;;;;;;;;;10117679;28;20046;-67
2021/06/24 17:30:58;;;;;;;9.00;3.60;;;;;;;;;;10110815;28;20046;-66
2021/06/24 17:35:54;;;;;;;7.45;3.70;;;;;;;;;;10111230;28;20081;-64
2021/06/24 17:40:55;;;;;;;5.68;3.40;;;;;;;;;;10116180;28;20050;-66
2021/06/24 17:45:52;;;;;;;7.97;3.30;;;;;;;;;;10110289;28;20401;-67
2021/06/24 17:50:49;;;;;;;8.30;4.85;;;;;;;;;;10124646;28;20082;-67
2021/06/24 17:55:45;;;;;;;6.25;3.55;;;;;;;;;;10112613;28;20497;-69
2021/06/24 18:00:42;;;;;;;7.78;3.53;;;;;;;;;;10129216;28;20120;-69
2021/06/24 18:05:39;;;;;;;6.07;2.78;;;;;;;;;;10110221;28;20078;-68
2021/06/24 18:10:39;;;;;;;5.78;3.25;;;;;;;;;;10109640;28;20054;-69
2021/06/24 18:15:35;;;;;;;8.30;3.78;;;;;;;;;;10110683;28;20101;-70
2021/06/24 18:20:33;;;;;;;8.18;3.17;;;;;;;;;;10110392;28;20055;-69
2021/06/24 18:25:30;;;;;;;7.90;2.92;;;;;;;;;;10110390;28;20064;-69
2021/06/24 18:30:26;;;;;;;7.63;3.65;;;;;;;;;;10107045;28;20062;-69
2021/06/24 18:35:24;;;;;;;6.20;3.00;;;;;;;;;;10109640;28;20484;-68
2021/06/24 18:40:20;;;;;;;7.82;2.80;;;;;;;;;;10113713;28;20081;-69
2021/06/24 18:45:16;;;;;;;7.22;2.70;;;;;;;;;;10108331;28;20547;-68
2021/06/24 18:50:13;;;;;;;6.47;3.30;;;;;;;;;;10103939;28;20109;-70
2021/06/24 18:55:10;;;;;;;9.00;2.90;;;;;;;;;;10111132;28;20133;-69
2021/06/24 19:00:08;;;;;;;3.92;2.13;;;;;;;;;;10104416;28;20101;-70
2021/06/24 19:05:05;;;;;;;7.68;2.67;;;;;;;;;;10107169;28;20105;-69
2021/06/24 19:10:01;;;;;;;8.93;3.63;;;;;;;;;;10097818;28;20138;-70
2021/06/24 19:14:58;;;;;;;6.75;2.50;;;;;;;;;;10106100;28;20050;-67
2021/06/24 19:19:54;;;;;;;8.75;3.60;;;;;;;;;;10121653;28;20043;-68
2021/06/24 19:24:51;;;;;;;6.78;3.38;;;;;;;;;;10116521;28;20083;-67
2021/06/24 19:29:47;;;;;;;9.15;3.10;;;;;;;;;;10110738;28;20166;-70
2021/06/24 19:34:43;;;;;;;5.82;3.00;;;;;;;;;;10103359;28;20087;-69
2021/06/24 19:39:40;;;;;;;8.60;2.97;;;;;;;;;;10095136;28;20062;-69
2021/06/24 19:44:37;;;;;;;5.43;2.20;;;;;;;;;;10102308;28;20043;-66
2021/06/24 19:49:34;;;;;;;6.38;2.20;;;;;;;;;;10099352;28;20536;-70
2021/06/24 19:54:31;;;;;;;5.22;2.80;;;;;;;;;;10104843;28;20630;-69
2021/06/24 19:59:28;;;;;;;6.45;2.63;;;;;;;;;;10106090;28;20061;-66
2021/06/24 20:04:24;;;;;;;8.15;2.70;;;;;;;;;;10105053;28;20481;-65
2021/06/24 20:09:21;;;;;;;14.57;4.97;;;;;;;;;;10111148;28;20065;-70
2021/06/24 20:14:18;;;;;;;8.63;2.92;;;;;;;;;;10115509;28;20050;-70
2021/06/24 20:19:14;;;;;;;5.72;2.63;;;;;;;;;;10114500;28;20568;-69
2021/06/24 20:24:13;;;;;;;6.40;2.63;;;;;;;;;;10106703;28;20097;-69
2021/06/24 20:29:13;;;;;;;6.72;2.60;;;;;;;;;;10100918;28;20050;-70
2021/06/24 20:34:10;;;;;;;6.05;2.17;;;;;;;;;;10102374;28;20667;-69
2021/06/24 20:39:07;;;;;;;6.57;2.20;;;;;;;;;;10102810;28;20081;-69
2021/06/24 20:44:03;;;;;;;5.75;2.45;;;;;;;;;;10107042;28;20049;-69
2021/06/24 20:49:00;;;;;;;7.43;2.00;;;;;;;;;;10101972;28;20074;-69
2021/06/24 20:53:56;;;;;;;6.68;2.50;;;;;;;;;;10103784;28;20070;-68
2021/06/24 20:58:52;;;;;;;8.82;2.30;;;;;;;;;;10099749;28;20125;-71
2021/06/24 21:03:49;;;;;;;3.50;1.50;;;;;;;;;;10119550;28;20086;-70
2021/06/24 21:08:46;;;;;;;4.30;1.83;;;;;;;;;;10101769;28;20043;-70
2021/06/24 21:13:42;;;;;;;4.47;1.90;;;;;;;;;;10100649;28;20043;-71
2021/06/24 21:18:39;;;;;;;5.75;2.03;;;;;;;;;;10102730;28;20038;-70
2021/06/24 21:23:36;;;;;;;7.95;3.17;;;;;;;;;;10104630;28;20501;-69
2021/06/24 21:28:32;;;;;;;10.00;3.95;;;;;;;;;;10107733;28;20094;-70
2021/06/24 21:33:29;;;;;;;5.82;2.67;;;;;;;;;;10127566;28;20158;-69
2021/06/24 21:38:26;;;;;;;5.07;1.70;;;;;;;;;;10098913;28;20093;-70
2021/06/24 21:43:24;;;;;;;5.18;2.00;;;;;;;;;;10106122;28;20457;-69
2021/06/24 21:48:57;;;;;;;;;;;;;;;;;;;;;
2021/06/24 22:00:25;;;;;;;4.25;1.60;;;;;;;;;;10065569;28;20838;-69
2021/06/24 22:06:00;;;;;;;5.57;2.22;;;;;;;;;;10125426;28;20054;-71
2021/06/24 22:10:57;;;;;;;;;;;;;;;;;;10177970;23;20062;-69
2021/06/24 22:15:55;;;;;;;6.22;1.98;;;;;;;;;;10094147;28;20350;-69
2021/06/24 22:20:52;;;;;;;5.00;1.70;;;;;;;;;;10086590;28;20046;-69
2021/06/24 22:25:48;;;;;;;4.60;2.30;;;;;;;;;;10094644;28;20048;-68
2021/06/24 22:30:44;;;;;;;5.93;2.72;;;;;;;;;;10078301;28;20061;-71
2021/06/24 22:35:41;;;;;;;7.13;2.83;;;;;;;;;;10086996;28;20036;-68
2021/06/24 22:40:37;;;;;;;6.35;2.90;;;;;;;;;;10093678;28;20043;-70
2021/06/24 22:45:34;;;;;;;6.25;2.55;;;;;;;;;;10089706;28;20043;-68
2021/06/24 22:50:30;;;;;;;7.40;2.50;;;;;;;;;;10093842;28;20580;-68
2021/06/24 22:55:27;;;;;;;4.53;2.20;;;;;;;;;;10091544;28;20047;-68
2021/06/24 23:00:23;;;;;;;5.72;2.10;;;;;;;;;;10085401;28;20053;-68
2021/06/24 23:05:20;;;;;;;5.88;2.60;;;;;;;;;;10103132;28;20686;-68
2021/06/24 23:10:17;;;;;;;5.45;2.25;;;;;;;;;;10089573;28;20043;-68
2021/06/24 23:15:13;;;;;;;4.32;2.20;;;;;;;;;;10091159;28;20461;-69
2021/06/24 23:20:10;;;;;;;5.43;2.25;;;;;;;;;;10093185;28;20050;-69
2021/06/24 23:25:07;;;;;;;5.65;2.53;;;;;;;;;;10080397;28;20055;-69
2021/06/24 23:30:06;;;;;;;5.07;2.38;;;;;;;;;;10087616;28;20501;-69
2021/06/24 23:35:30;;;;;;;4.85;2.40;;;;;;;;;;10092103;28;20070;-70
2021/06/24 23:40:29;;;;;;;5.88;2.45;;;;;;;;;;10084542;28;20502;-69
2021/06/24 23:45:39;;;;;;;5.95;3.08;;;;;;;;;;10081614;28;20032;-70
2021/06/24 23:56:50;;;;;;;8.30;2.95;;;;;;;;;;9990445;29;20048;-69
